Wetterdaten: Woche 16.04.18 - 22.04.18 (KW16)
Datum Zeit Temp. Aussen Temp. o. S. +5cm Feuchte Auss BlattFeu 1 Luftdruck Regen Sonnenschein Regendauer Solar Windben Empfang
16.04.2018 00:00 12,4 C 11,3 C 9,1 C 88 % 0 lf 1009,9 hPa 0,0 l/m 0,00 h 0,00 h 0 W/m 4,4 km/h (1 Bft) 96,95 %
16.04.2018 01:00 11,6 C 10,4 C 8,2 C 90 % 1 lf 1010,0 hPa 0,0 l/m 0,00 h 0,00 h 0 W/m 4,7 km/h (1 Bft) 96,36 %
16.04.2018 02:00 10,8 C 9,5 C 7,6 C 91 % 3 lf 1010,0 hPa 0,0 l/m 0,00 h 0,00 h 0 W/m 5,0 km/h (1 Bft) 94,73 %
16.04.2018 03:00 10,2 C 9,9 C 8,1 C 92 % 3 lf 1010,3 hPa 0,0 l/m 0,00 h 0,00 h 0 W/m 8,4 km/h (2 Bft) 98,57 %
16.04.2018 04:00 11,0 C 11,4 C 9,8 C 92 % 0 lf 1010,5 hPa 0,0 l/m 0,00 h 0,00 h 0 W/m 8,3 km/h (2 Bft) 94,60 %
16.04.2018 05:00 11,6 C 11,4 C 10,0 C 90 % 0 lf 1010,7 hPa 0,0 l/m 0,00 h 0,03 h 0 W/m 6,9 km/h (2 Bft) 96,47 %
16.04.2018 06:00 11,8 C 11,1 C 9,6 C 90 % 0 lf 1011,2 hPa 0,0 l/m 0,00 h 0,00 h 7 W/m 5,3 km/h (1 Bft) 97,98 %
16.04.2018 07:00 11,7 C 11,9 C 10,5 C 91 % 0 lf 1011,7 hPa 0,0 l/m 0,00 h 0,03 h 44 W/m 8,1 km/h (2 Bft) 94,88 %
16.04.2018 08:00 12,2 C 14,7 C 11,5 C 91 % 0 lf 1012,4 hPa 0,0 l/m 0,63 h 0,00 h 201 W/m 7,4 km/h (2 Bft) 96,57 %
16.04.2018 09:00 14,1 C 19,8 C 14,3 C 86 % 0 lf 1013,0 hPa 0,0 l/m 1,00 h 0,00 h 322 W/m 15,1 km/h (3 Bft) 95,59 %
16.04.2018 10:00 15,0 C 20,3 C 17,1 C 82 % 0 lf 1013,6 hPa 0,0 l/m 0,70 h 0,00 h 376 W/m 16,2 km/h (3 Bft) 97,08 %
16.04.2018 11:00 16,3 C 24,4 C 20,8 C 75 % 0 lf 1014,0 hPa 0,0 l/m 0,90 h 0,00 h 643 W/m 18,1 km/h (3 Bft) 95,73 %
16.04.2018 12:00 17,4 C 23,6 C 20,1 C 69 % 0 lf 1014,3 hPa 0,0 l/m 0,60 h 0,00 h 533 W/m 17,3 km/h (3 Bft) 96,14 %
16.04.2018 13:00 17,8 C 24,9 C 19,3 C 67 % 0 lf 1014,5 hPa 0,0 l/m 0,83 h 0,00 h 634 W/m 17,4 km/h (3 Bft) 97,44 %
16.04.2018 14:00 18,4 C 24,0 C 19,0 C 62 % 0 lf 1014,6 hPa 0,0 l/m 0,67 h 0,00 h 637 W/m 19,1 km/h (3 Bft) 95,80 %
16.04.2018 15:00 18,8 C 22,3 C 20,3 C 59 % 0 lf 1015,0 hPa 0,0 l/m 0,87 h 0,00 h 468 W/m 17,3 km/h (3 Bft) 96,30 %
16.04.2018 16:00 18,7 C 21,8 C 19,0 C 58 % 0 lf 1015,2 hPa 0,0 l/m 0,77 h 0,00 h 476 W/m 18,3 km/h (3 Bft) 95,52 %
16.04.2018 17:00 19,3 C 20,0 C 18,0 C 55 % 0 lf 1015,4 hPa 0,0 l/m 0,80 h 0,00 h 394 W/m 14,7 km/h (3 Bft) 97,85 %
16.04.2018 18:00 18,8 C 18,8 C 16,6 C 55 % 0 lf 1015,7 hPa 0,0 l/m 0,83 h 0,00 h 220 W/m 16,4 km/h (3 Bft) 96,22 %
16.04.2018 19:00 17,7 C 16,8 C 14,7 C 59 % 0 lf 1016,3 hPa 0,0 l/m 0,33 h 0,00 h 73 W/m 12,9 km/h (3 Bft) 95,02 %
16.04.2018 20:00 15,9 C 13,3 C 10,9 C 64 % 0 lf 1017,1 hPa 0,0 l/m 0,07 h 0,00 h 14 W/m 6,6 km/h (2 Bft) 98,00 %
16.04.2018 21:00 13,7 C 11,0 C 8,6 C 71 % 0 lf 1018,3 hPa 0,0 l/m 0,00 h 0,00 h 0 W/m 1,0 km/h (0 Bft) 97,72 %
16.04.2018 22:00 12,0 C 9,9 C 7,7 C 77 % 0 lf 1019,1 hPa 0,0 l/m 0,00 h 0,00 h 0 W/m 1,3 km/h (1 Bft) 93,87 %
16.04.2018 23:00 10,8 C 8,7 C 7,0 C 81 % 0 lf 1019,6 hPa 0,0 l/m 0,00 h 0,00 h 0 W/m 2,0 km/h (1 Bft) 98,49 %
17.04.2018 00:00 9,8 C 7,9 C 6,3 C 85 % 0 lf 1020,2 hPa 0,0 l/m 0,00 h 0,00 h 0 W/m 2,0 km/h (1 Bft) 96,14 %
17.04.2018 01:00 9,0 C 7,1 C 5,7 C 87 % 1 lf 1020,5 hPa 0,0 l/m 0,00 h 0,00 h 0 W/m 1,1 km/h (0 Bft) 94,66 %
17.04.2018 02:00 8,2 C 6,6 C 5,1 C 88 % 3 lf 1020,8 hPa 0,0 l/m 0,00 h 0,00 h 0 W/m 1,4 km/h (1 Bft) 97,86 %
17.04.2018 03:00 7,6 C 6,0 C 4,5 C 90 % 10 lf 1021,3 hPa 0,0 l/m 0,00 h 0,00 h 0 W/m 0,5 km/h (0 Bft) 96,37 %
17.04.2018 04:00 7,0 C 5,5 C 4,2 C 90 % 15 lf 1021,6 hPa 0,0 l/m 0,00 h 0,00 h 0 W/m 0,0 km/h (0 Bft) 95,94 %
17.04.2018 05:00 6,5 C 5,6 C 3,9 C 91 % 15 lf 1021,7 hPa 0,0 l/m 0,00 h 0,00 h 0 W/m 0,0 km/h (0 Bft) 96,06 %
17.04.2018 06:00 6,2 C 5,3 C 3,9 C 93 % 15 lf 1021,8 hPa 0,0 l/m 0,00 h 0,00 h 11 W/m 0,1 km/h (0 Bft) 98,27 %
17.04.2018 07:00 6,1 C 6,4 C 4,5 C 94 % 15 lf 1022,7 hPa 0,0 l/m 0,83 h 0,00 h 84 W/m 1,1 km/h (1 Bft) 94,63 %
17.04.2018 08:00 7,8 C 10,3 C 6,8 C 96 % 15 lf 1023,5 hPa 0,0 l/m 1,00 h 0,00 h 242 W/m 7,5 km/h (2 Bft) 96,54 %
17.04.2018 09:00 11,4 C 18,8 C 10,3 C 94 % 2 lf 1023,9 hPa 0,0 l/m 1,00 h 0,00 h 409 W/m 9,5 km/h (2 Bft) 97,75 %
17.04.2018 10:00 15,6 C 23,1 C 21,4 C 78 % 0 lf 1024,2 hPa 0,0 l/m 1,00 h 0,00 h 571 W/m 10,4 km/h (2 Bft) 94,51 %
17.04.2018 11:00 18,1 C 24,1 C 23,3 C 68 % 0 lf 1024,2 hPa 0,0 l/m 1,00 h 0,00 h 665 W/m 15,3 km/h (3 Bft) 97,22 %
17.04.2018 12:00 19,7 C 25,5 C 24,9 C 58 % 0 lf 1024,0 hPa 0,0 l/m 0,93 h 0,00 h 668 W/m 18,0 km/h (3 Bft) 96,76 %
17.04.2018 13:00 20,6 C 26,5 C 21,1 C 56 % 0 lf 1023,9 hPa 0,0 l/m 1,00 h 0,00 h 781 W/m 20,4 km/h (4 Bft) 96,30 %
17.04.2018 14:00 21,5 C 26,7 C 21,5 C 54 % 0 lf 1023,8 hPa 0,0 l/m 1,00 h 0,00 h 733 W/m 16,9 km/h (3 Bft) 97,22 %
17.04.2018 15:00 21,9 C 26,5 C 23,9 C 55 % 0 lf 1023,4 hPa 0,0 l/m 1,00 h 0,00 h 633 W/m 15,9 km/h (3 Bft) 95,51 %
17.04.2018 16:00 22,4 C 24,9 C 22,0 C 54 % 0 lf 1023,4 hPa 0,0 l/m 1,00 h 0,00 h 516 W/m 13,2 km/h (3 Bft) 97,30 %
17.04.2018 17:00 23,1 C 23,5 C 21,7 C 54 % 0 lf 1023,5 hPa 0,0 l/m 1,00 h 0,00 h 401 W/m 10,0 km/h (2 Bft) 96,32 %
17.04.2018 18:00 22,9 C 22,9 C 20,5 C 55 % 0 lf 1023,8 hPa 0,0 l/m 1,00 h 0,00 h 242 W/m 12,2 km/h (2 Bft) 97,35 %
17.04.2018 19:00 22,2 C 21,3 C 18,4 C 56 % 0 lf 1024,0 hPa 0,0 l/m 0,47 h 0,00 h 84 W/m 7,2 km/h (2 Bft) 96,08 %
17.04.2018 20:00 20,4 C 17,6 C 13,6 C 61 % 0 lf 1024,6 hPa 0,0 l/m 0,03 h 0,00 h 14 W/m 2,7 km/h (1 Bft) 96,87 %
17.04.2018 21:00 17,7 C 14,8 C 11,5 C 69 % 0 lf 1025,4 hPa 0,0 l/m 0,00 h 0,00 h 0 W/m 2,1 km/h (1 Bft) 95,95 %
17.04.2018 22:00 15,6 C 13,6 C 10,6 C 75 % 0 lf 1025,8 hPa 0,0 l/m 0,00 h 0,00 h 0 W/m 1,1 km/h (0 Bft) 97,01 %
17.04.2018 23:00 14,1 C 12,1 C 9,6 C 80 % 0 lf 1026,2 hPa 0,0 l/m 0,00 h 0,00 h 0 W/m 0,6 km/h (0 Bft) 95,59 %
18.04.2018 00:00 13,0 C 11,5 C 9,0 C 85 % 1 lf 1026,7 hPa 0,0 l/m 0,00 h 0,00 h 0 W/m 0,9 km/h (0 Bft) 97,00 %
18.04.2018 01:00 11,9 C 10,4 C 8,1 C 87 % 1 lf 1027,0 hPa 0,0 l/m 0,00 h 0,00 h 0 W/m 0,0 km/h (0 Bft) 94,58 %
18.04.2018 02:00 11,1 C 9,7 C 7,7 C 89 % 5 lf 1027,3 hPa 0,0 l/m 0,00 h 0,00 h 0 W/m 0,0 km/h (0 Bft) 97,44 %
18.04.2018 03:00 10,4 C 9,0 C 7,1 C 90 % 13 lf 1027,4 hPa 0,0 l/m 0,00 h 0,00 h 0 W/m 0,0 km/h (0 Bft) 95,35 %
18.04.2018 04:00 9,9 C 8,9 C 6,9 C 92 % 15 lf 1027,8 hPa 0,0 l/m 0,00 h 0,00 h 0 W/m 1,1 km/h (1 Bft) 97,36 %
18.04.2018 05:00 9,3 C 8,2 C 6,3 C 93 % 15 lf 1028,3 hPa 0,0 l/m 0,00 h 0,00 h 0 W/m 0,8 km/h (0 Bft) 96,42 %
18.04.2018 06:00 8,9 C 8,2 C 6,2 C 94 % 15 lf 1028,8 hPa 0,0 l/m 0,00 h 0,00 h 12 W/m 3,7 km/h (1 Bft) 95,73 %
18.04.2018 07:00 9,1 C 9,5 C 7,0 C 95 % 15 lf 1029,3 hPa 0,0 l/m 0,90 h 0,00 h 87 W/m 3,8 km/h (1 Bft) 97,00 %
18.04.2018 08:00 10,5 C 13,2 C 9,0 C 97 % 12 lf 1029,8 hPa 0,0 l/m 1,00 h 0,00 h 254 W/m 7,1 km/h (2 Bft) 96,51 %
18.04.2018 09:00 14,5 C 23,4 C 12,7 C 89 % 0 lf 1030,2 hPa 0,0 l/m 1,00 h 0,00 h 426 W/m 9,2 km/h (2 Bft) 97,29 %
18.04.2018 10:00 18,9 C 26,8 C 24,2 C 71 % 0 lf 1030,3 hPa 0,0 l/m 1,00 h 0,00 h 577 W/m 9,8 km/h (2 Bft) 94,74 %
18.04.2018 11:00 21,8 C 29,7 C 26,8 C 61 % 0 lf 1030,3 hPa 0,0 l/m 1,00 h 0,00 h 697 W/m 9,9 km/h (2 Bft) 96,52 %
18.04.2018 12:00 23,6 C 30,5 C 27,9 C 55 % 0 lf 1030,1 hPa 0,0 l/m 1,00 h 0,00 h 716 W/m 11,7 km/h (2 Bft) 97,84 %
18.04.2018 13:00 24,5 C 30,2 C 24,4 C 52 % 0 lf 1029,7 hPa 0,0 l/m 1,00 h 0,00 h 780 W/m 15,1 km/h (3 Bft) 94,87 %
18.04.2018 14:00 25,3 C 30,7 C 24,2 C 49 % 0 lf 1029,3 hPa 0,0 l/m 1,00 h 0,00 h 763 W/m 14,7 km/h (3 Bft) 96,22 %
18.04.2018 15:00 25,7 C 29,8 C 27,5 C 48 % 0 lf 1028,8 hPa 0,0 l/m 1,00 h 0,00 h 683 W/m 17,7 km/h (3 Bft) 98,01 %
18.04.2018 16:00 26,3 C 28,3 C 24,7 C 42 % 0 lf 1028,2 hPa 0,0 l/m 1,00 h 0,00 h 577 W/m 16,4 km/h (3 Bft) 95,16 %
18.04.2018 17:00 26,8 C 26,3 C 23,8 C 40 % 0 lf 1027,7 hPa 0,0 l/m 1,00 h 0,00 h 429 W/m 13,9 km/h (3 Bft) 96,44 %
18.04.2018 18:00 26,8 C 26,0 C 22,7 C 41 % 0 lf 1027,4 hPa 0,0 l/m 1,00 h 0,00 h 260 W/m 11,4 km/h (2 Bft) 97,69 %
18.04.2018 19:00 26,5 C 24,7 C 19,1 C 42 % 0 lf 1027,1 hPa 0,0 l/m 0,30 h 0,00 h 68 W/m 5,8 km/h (2 Bft) 94,94 %
18.04.2018 20:00 23,4 C 19,8 C 14,5 C 54 % 0 lf 1027,0 hPa 0,0 l/m 0,00 h 0,00 h 11 W/m 1,7 km/h (1 Bft) 96,16 %
18.04.2018 21:00 19,8 C 17,0 C 12,8 C 66 % 0 lf 1027,3 hPa 0,0 l/m 0,00 h 0,00 h 0 W/m 1,5 km/h (1 Bft) 96,29 %
18.04.2018 22:00 17,8 C 15,5 C 11,9 C 71 % 0 lf 1027,4 hPa 0,0 l/m 0,00 h 0,00 h 0 W/m 5,1 km/h (1 Bft) 97,43 %
18.04.2018 23:00 16,2 C 14,0 C 10,9 C 75 % 0 lf 1027,5 hPa 0,0 l/m 0,00 h 0,00 h 0 W/m 1,7 km/h (1 Bft) 96,51 %
19.04.2018 00:00 14,9 C 13,0 C 10,2 C 80 % 0 lf 1027,5 hPa 0,0 l/m 0,00 h 0,00 h 0 W/m 1,8 km/h (1 Bft) 95,14 %
19.04.2018 01:00 13,8 C 11,9 C 9,5 C 83 % 0 lf 1027,4 hPa 0,0 l/m 0,00 h 0,00 h 0 W/m 1,3 km/h (1 Bft) 96,61 %
19.04.2018 02:00 12,8 C 11,3 C 8,9 C 85 % 1 lf 1027,2 hPa 0,0 l/m 0,00 h 0,00 h 0 W/m 0,3 km/h (0 Bft) 96,79 %
19.04.2018 03:00 12,1 C 11,0 C 8,6 C 88 % 1 lf 1026,9 hPa 0,0 l/m 0,00 h 0,00 h 0 W/m 3,6 km/h (1 Bft) 95,30 %
19.04.2018 04:00 11,3 C 10,0 C 7,9 C 88 % 1 lf 1026,6 hPa 0,0 l/m 0,00 h 0,00 h 0 W/m 3,0 km/h (1 Bft) 98,13 %
19.04.2018 05:00 10,7 C 10,3 C 7,5 C 89 % 1 lf 1026,3 hPa 0,0 l/m 0,00 h 0,00 h 0 W/m 8,1 km/h (2 Bft) 94,44 %
19.04.2018 06:00 12,2 C 12,5 C 9,2 C 82 % 0 lf 1026,0 hPa 0,0 l/m 0,13 h 0,00 h 14 W/m 11,0 km/h (2 Bft) 97,16 %
19.04.2018 07:00 12,7 C 12,9 C 10,0 C 79 % 0 lf 1026,1 hPa 0,0 l/m 1,00 h 0,00 h 100 W/m 10,9 km/h (2 Bft) 96,54 %
19.04.2018 08:00 15,1 C 16,8 C 13,4 C 74 % 0 lf 1026,2 hPa 0,0 l/m 1,00 h 0,00 h 272 W/m 19,1 km/h (3 Bft) 96,30 %
19.04.2018 09:00 18,9 C 23,5 C 17,2 C 63 % 0 lf 1026,3 hPa 0,0 l/m 1,00 h 0,00 h 442 W/m 24,6 km/h (4 Bft) 96,22 %
19.04.2018 10:00 21,7 C 26,5 C 26,2 C 55 % 0 lf 1026,2 hPa 0,0 l/m 1,00 h 0,00 h 591 W/m 25,8 km/h (4 Bft) 96,46 %
19.04.2018 11:00 24,0 C 29,0 C 28,5 C 49 % 0 lf 1026,1 hPa 0,0 l/m 1,00 h 0,00 h 714 W/m 27,3 km/h (4 Bft) 96,65 %
19.04.2018 12:00 25,7 C 29,8 C 29,8 C 44 % 0 lf 1025,8 hPa 0,0 l/m 1,00 h 0,00 h 763 W/m 32,5 km/h (5 Bft) 96,14 %
19.04.2018 13:00 26,8 C 31,1 C 26,5 C 42 % 0 lf 1025,5 hPa 0,0 l/m 1,00 h 0,00 h 810 W/m 29,3 km/h (5 Bft) 96,48 %
19.04.2018 14:00 28,0 C 32,6 C 26,7 C 38 % 0 lf 1024,9 hPa 0,0 l/m 1,00 h 0,00 h 788 W/m 26,9 km/h (4 Bft) 96,88 %
19.04.2018 15:00 29,0 C 33,1 C 30,4 C 36 % 0 lf 1024,4 hPa 0,0 l/m 1,00 h 0,00 h 716 W/m 23,1 km/h (4 Bft) 96,06 %
19.04.2018 16:00 29,6 C 31,4 C 27,6 C 35 % 0 lf 1023,7 hPa 0,0 l/m 1,00 h 0,00 h 604 W/m 24,1 km/h (4 Bft) 95,80 %
19.04.2018 17:00 29,3 C 28,8 C 26,3 C 35 % 0 lf 1023,4 hPa 0,0 l/m 1,00 h 0,00 h 445 W/m 21,1 km/h (4 Bft) 97,60 %
19.04.2018 18:00 28,8 C 28,0 C 25,1 C 36 % 0 lf 1023,1 hPa 0,0 l/m 1,00 h 0,00 h 274 W/m 18,0 km/h (3 Bft) 95,46 %
19.04.2018 19:00 27,9 C 26,4 C 22,3 C 38 % 0 lf 1022,8 hPa 0,0 l/m 0,30 h 0,00 h 73 W/m 11,8 km/h (2 Bft) 97,29 %
19.04.2018 20:00 25,5 C 23,4 C 18,1 C 42 % 0 lf 1022,7 hPa 0,0 l/m 0,00 h 0,00 h 15 W/m 11,1 km/h (2 Bft) 96,16 %
19.04.2018 21:00 23,1 C 20,7 C 14,7 C 47 % 0 lf 1023,0 hPa 0,0 l/m 0,00 h 0,00 h 0 W/m 7,5 km/h (2 Bft) 95,87 %
19.04.2018 22:00 20,7 C 18,5 C 13,1 C 53 % 0 lf 1023,0 hPa 0,0 l/m 0,00 h 0,00 h 0 W/m 6,1 km/h (2 Bft) 97,29 %
19.04.2018 23:00 18,7 C 17,0 C 12,0 C 59 % 0 lf 1023,0 hPa 0,0 l/m 0,00 h 0,00 h 0 W/m 6,6 km/h (2 Bft) 95,37 %
20.04.2018 00:00 17,4 C 16,2 C 11,6 C 64 % 0 lf 1022,9 hPa 0,0 l/m 0,00 h 0,00 h 0 W/m 7,2 km/h (2 Bft) 95,97 %
20.04.2018 01:00 16,3 C 14,8 C 10,8 C 67 % 0 lf 1022,9 hPa 0,0 l/m 0,00 h 0,00 h 0 W/m 4,9 km/h (1 Bft) 97,94 %
20.04.2018 02:00 15,3 C 14,2 C 10,8 C 71 % 0 lf 1022,7 hPa 0,0 l/m 0,00 h 0,00 h 0 W/m 7,2 km/h (2 Bft) 94,59 %
20.04.2018 03:00 14,4 C 12,8 C 9,9 C 73 % 0 lf 1022,5 hPa 0,0 l/m 0,00 h 0,00 h 0 W/m 4,9 km/h (1 Bft) 96,87 %
20.04.2018 04:00 13,4 C 12,2 C 9,3 C 77 % 0 lf 1022,4 hPa 0,0 l/m 0,00 h 0,00 h 0 W/m 3,0 km/h (1 Bft) 95,80 %
20.04.2018 05:00 12,7 C 11,9 C 8,9 C 80 % 0 lf 1022,1 hPa 0,0 l/m 0,00 h 0,00 h 0 W/m 5,7 km/h (1 Bft) 93,67 %
20.04.2018 06:00 12,3 C 11,6 C 8,9 C 82 % 0 lf 1022,1 hPa 0,0 l/m 0,00 h 0,00 h 11 W/m 5,0 km/h (1 Bft) 95,42 %
20.04.2018 07:00 12,2 C 12,7 C 9,9 C 84 % 0 lf 1022,2 hPa 0,0 l/m 0,63 h 0,00 h 78 W/m 6,7 km/h (2 Bft) 97,30 %
20.04.2018 08:00 13,9 C 16,1 C 12,9 C 80 % 0 lf 1022,2 hPa 0,0 l/m 1,00 h 0,00 h 250 W/m 12,7 km/h (3 Bft) 96,30 %
20.04.2018 09:00 17,7 C 23,4 C 16,7 C 70 % 0 lf 1022,1 hPa 0,0 l/m 1,00 h 0,00 h 419 W/m 13,2 km/h (3 Bft) 96,14 %
20.04.2018 10:00 21,6 C 28,5 C 26,4 C 63 % 0 lf 1022,1 hPa 0,0 l/m 1,00 h 0,00 h 551 W/m 11,6 km/h (2 Bft) 97,27 %
20.04.2018 11:00 24,2 C 31,2 C 29,2 C 59 % 0 lf 1022,1 hPa 0,0 l/m 1,00 h 0,00 h 656 W/m 11,2 km/h (2 Bft) 95,72 %
20.04.2018 12:00 26,3 C 32,1 C 30,9 C 54 % 0 lf 1022,0 hPa 0,0 l/m 0,80 h 0,00 h 695 W/m 15,2 km/h (3 Bft) 96,17 %
20.04.2018 13:00 28,1 C 34,3 C 27,5 C 51 % 0 lf 1021,5 hPa 0,0 l/m 1,00 h 0,00 h 769 W/m 14,5 km/h (3 Bft) 96,72 %
20.04.2018 14:00 28,7 C 34,5 C 27,5 C 47 % 0 lf 1021,0 hPa 0,0 l/m 1,00 h 0,00 h 742 W/m 14,9 km/h (3 Bft) 97,51 %
20.04.2018 15:00 29,1 C 35,0 C 31,0 C 45 % 0 lf 1020,4 hPa 0,0 l/m 1,00 h 0,00 h 669 W/m 14,7 km/h (3 Bft) 94,52 %
20.04.2018 16:00 29,8 C 32,7 C 28,4 C 42 % 0 lf 1019,9 hPa 0,0 l/m 1,00 h 0,00 h 558 W/m 15,1 km/h (3 Bft) 96,08 %
20.04.2018 17:00 29,7 C 30,1 C 27,1 C 42 % 0 lf 1019,5 hPa 0,0 l/m 1,00 h 0,00 h 411 W/m 13,4 km/h (3 Bft) 97,15 %
20.04.2018 18:00 29,1 C 28,5 C 25,2 C 45 % 0 lf 1019,2 hPa 0,0 l/m 0,73 h 0,00 h 201 W/m 11,3 km/h (2 Bft) 96,26 %
20.04.2018 19:00 27,6 C 26,4 C 23,2 C 49 % 0 lf 1019,0 hPa 0,0 l/m 0,23 h 0,00 h 79 W/m 11,9 km/h (2 Bft) 95,38 %
20.04.2018 20:00 24,7 C 22,4 C 19,8 C 58 % 0 lf 1019,4 hPa 0,0 l/m 0,00 h 0,00 h 15 W/m 12,3 km/h (3 Bft) 96,30 %
20.04.2018 21:00 22,3 C 19,4 C 15,8 C 64 % 0 lf 1019,9 hPa 0,0 l/m 0,00 h 0,00 h 0 W/m 5,1 km/h (1 Bft) 98,72 %
20.04.2018 22:00 20,3 C 17,9 C 14,4 C 69 % 0 lf 1020,0 hPa 0,0 l/m 0,00 h 0,00 h 0 W/m 4,8 km/h (1 Bft) 93,66 %
20.04.2018 23:00 18,8 C 16,8 C 13,7 C 70 % 0 lf 1020,0 hPa 0,0 l/m 0,00 h 0,00 h 0 W/m 4,2 km/h (1 Bft) 96,93 %
21.04.2018 00:00 17,6 C 15,8 C 12,6 C 73 % 0 lf 1020,0 hPa 0,0 l/m 0,00 h 0,00 h 0 W/m 1,1 km/h (0 Bft) 98,28 %
21.04.2018 01:00 16,5 C 14,9 C 12,2 C 75 % 0 lf 1020,0 hPa 0,0 l/m 0,00 h 0,00 h 0 W/m 3,4 km/h (1 Bft) 93,12 %
21.04.2018 02:00 15,8 C 14,8 C 12,6 C 77 % 0 lf 1020,0 hPa 0,0 l/m 0,00 h 0,00 h 0 W/m 3,0 km/h (1 Bft) 97,20 %
21.04.2018 03:00 15,2 C 13,5 C 11,3 C 79 % 0 lf 1019,9 hPa 0,0 l/m 0,00 h 0,00 h 0 W/m 0,2 km/h (0 Bft) 98,07 %
21.04.2018 04:00 14,4 C 12,9 C 10,8 C 81 % 0 lf 1019,9 hPa 0,0 l/m 0,00 h 0,00 h 0 W/m 7,0 km/h (2 Bft) 94,82 %
21.04.2018 05:00 13,7 C 11,7 C 9,6 C 82 % 0 lf 1019,7 hPa 0,0 l/m 0,00 h 0,00 h 0 W/m 2,0 km/h (1 Bft) 95,96 %
21.04.2018 06:00 12,6 C 10,6 C 8,9 C 84 % 1 lf 1019,9 hPa 0,0 l/m 0,10 h 0,00 h 16 W/m 0,4 km/h (0 Bft) 97,38 %
21.04.2018 07:00 12,0 C 11,9 C 10,0 C 88 % 0 lf 1020,6 hPa 0,0 l/m 0,73 h 0,00 h 82 W/m 8,1 km/h (2 Bft) 95,74 %
21.04.2018 08:00 12,6 C 14,9 C 12,0 C 92 % 0 lf 1020,9 hPa 0,0 l/m 1,00 h 0,00 h 214 W/m 11,4 km/h (2 Bft) 96,50 %
21.04.2018 09:00 14,1 C 23,3 C 14,8 C 90 % 0 lf 1021,0 hPa 0,0 l/m 1,00 h 0,00 h 393 W/m 10,0 km/h (2 Bft) 95,58 %
21.04.2018 10:00 17,0 C 28,6 C 21,8 C 81 % 0 lf 1021,1 hPa 0,0 l/m 1,00 h 0,00 h 545 W/m 9,9 km/h (2 Bft) 97,51 %
21.04.2018 11:00 19,3 C 30,1 C 23,5 C 74 % 0 lf 1021,1 hPa 0,0 l/m 1,00 h 0,00 h 632 W/m 13,6 km/h (3 Bft) 94,37 %
21.04.2018 12:00 21,1 C 31,0 C 24,8 C 68 % 0 lf 1020,7 hPa 0,0 l/m 0,95 h 0,00 h 715 W/m 14,8 km/h (3 Bft) 97,47 %
21.04.2018 13:00 22,3 C 31,6 C 22,5 C 62 % 0 lf 1020,2 hPa 0,0 l/m 1,00 h 0,00 h 779 W/m 16,9 km/h (3 Bft) 98,82 %
21.04.2018 14:00 23,4 C 31,3 C 23,2 C 57 % 0 lf 1019,7 hPa 0,0 l/m 1,00 h 0,00 h 751 W/m 18,4 km/h (3 Bft) 92,10 %
21.04.2018 15:00 23,9 C 29,3 C 25,8 C 56 % 0 lf 1019,1 hPa 0,0 l/m 1,00 h 0,00 h 672 W/m 19,8 km/h (3 Bft) 98,37 %
21.04.2018 16:00 24,2 C 27,0 C 23,4 C 56 % 0 lf 1018,5 hPa 0,0 l/m 1,00 h 0,00 h 558 W/m 19,9 km/h (4 Bft) 96,22 %
21.04.2018 17:00 24,8 C 25,6 C 22,9 C 53 % 0 lf 1018,0 hPa 0,0 l/m 1,00 h 0,00 h 423 W/m 17,6 km/h (3 Bft) 94,73 %
21.04.2018 18:00 24,2 C 24,2 C 22,0 C 54 % 0 lf 1017,4 hPa 0,0 l/m 1,00 h 0,00 h 254 W/m 19,0 km/h (3 Bft) 97,16 %
21.04.2018 19:00 23,0 C 22,3 C 20,5 C 56 % 0 lf 1017,0 hPa 0,0 l/m 0,23 h 0,00 h 77 W/m 16,6 km/h (3 Bft) 97,37 %
21.04.2018 20:00 21,2 C 19,7 C 18,1 C 59 % 0 lf 1017,0 hPa 0,0 l/m 0,07 h 0,00 h 18 W/m 10,6 km/h (2 Bft) 94,66 %
21.04.2018 21:00 19,5 C 17,3 C 14,9 C 63 % 0 lf 1017,0 hPa 0,0 l/m 0,00 h 0,00 h 0 W/m 6,1 km/h (2 Bft) 97,08 %
21.04.2018 22:00 17,8 C 15,2 C 12,2 C 69 % 0 lf 1016,9 hPa 0,0 l/m 0,00 h 0,00 h 0 W/m 0,2 km/h (0 Bft) 96,44 %
21.04.2018 23:00 16,4 C 14,2 C 11,9 C 74 % 0 lf 1016,7 hPa 0,0 l/m 0,00 h 0,00 h 0 W/m 0,0 km/h (0 Bft) 97,58 %
22.04.2018 00:00 15,5 C 14,2 C 11,8 C 77 % 0 lf 1016,4 hPa 0,0 l/m 0,00 h 0,00 h 0 W/m 2,0 km/h (1 Bft) 93,93 %
22.04.2018 01:00 15,1 C 14,7 C 12,3 C 78 % 0 lf 1015,9 hPa 0,0 l/m 0,00 h 0,00 h 0 W/m 7,2 km/h (2 Bft) 98,71 %
22.04.2018 02:00 15,1 C 14,1 C 11,7 C 78 % 0 lf 1015,2 hPa 0,0 l/m 0,00 h 0,00 h 0 W/m 7,3 km/h (2 Bft) 96,93 %
22.04.2018 03:00 14,5 C 13,3 C 11,2 C 80 % 0 lf 1014,5 hPa 0,0 l/m 0,00 h 0,00 h 0 W/m 5,9 km/h (2 Bft) 94,09 %
22.04.2018 04:00 14,2 C 13,0 C 11,0 C 82 % 0 lf 1014,0 hPa 0,0 l/m 0,00 h 0,00 h 0 W/m 2,6 km/h (1 Bft) 97,30 %
22.04.2018 05:00 13,8 C 13,1 C 10,9 C 83 % 0 lf 1013,2 hPa 0,0 l/m 0,00 h 0,00 h 0 W/m 6,4 km/h (2 Bft) 97,22 %
22.04.2018 06:00 13,6 C 12,8 C 10,9 C 85 % 0 lf 1012,6 hPa 0,0 l/m 0,00 h 0,00 h 13 W/m 5,1 km/h (1 Bft) 93,78 %
22.04.2018 07:00 13,3 C 13,4 C 11,2 C 87 % 0 lf 1012,3 hPa 0,0 l/m 0,67 h 0,00 h 93 W/m 4,8 km/h (1 Bft) 97,87 %
22.04.2018 08:00 14,8 C 17,2 C 14,3 C 88 % 0 lf 1012,1 hPa 0,0 l/m 1,00 h 0,00 h 242 W/m 12,7 km/h (3 Bft) 96,88 %
22.04.2018 09:00 18,1 C 23,6 C 17,7 C 80 % 0 lf 1012,0 hPa 0,0 l/m 1,00 h 0,00 h 399 W/m 12,7 km/h (3 Bft) 94,88 %
22.04.2018 10:00 21,6 C 29,2 C 26,4 C 69 % 0 lf 1011,7 hPa 0,0 l/m 1,00 h 0,00 h 562 W/m 12,8 km/h (3 Bft) 96,56 %
22.04.2018 11:00 23,7 C 31,9 C 27,2 C 62 % 0 lf 1011,6 hPa 0,0 l/m 1,00 h 0,00 h 601 W/m 14,3 km/h (3 Bft) 96,38 %
22.04.2018 12:00 25,1 C 30,9 C 27,9 C 57 % 0 lf 1010,9 hPa 0,0 l/m 0,83 h 0,00 h 523 W/m 12,2 km/h (3 Bft) 96,91 %
22.04.2018 13:00 26,2 C 32,3 C 26,5 C 53 % 0 lf 1010,1 hPa 0,0 l/m 0,80 h 0,00 h 637 W/m 8,5 km/h (2 Bft) 93,52 %
22.04.2018 14:00 26,0 C 29,0 C 25,3 C 55 % 1 lf 1009,8 hPa 0,0 l/m 0,47 h 0,13 h 356 W/m 10,9 km/h (2 Bft) 98,43 %
22.04.2018 15:00 26,8 C 30,3 C 29,2 C 53 % 0 lf 1009,0 hPa 0,0 l/m 0,83 h 0,00 h 512 W/m 12,1 km/h (2 Bft) 96,16 %
22.04.2018 16:00 27,1 C 28,4 C 27,2 C 56 % 0 lf 1008,2 hPa 0,0 l/m 0,97 h 0,00 h 446 W/m 17,6 km/h (3 Bft) 94,55 %
22.04.2018 17:00 26,0 C 25,7 C 25,1 C 60 % 0 lf 1007,7 hPa 0,0 l/m 0,40 h 0,00 h 286 W/m 15,4 km/h (3 Bft) 97,75 %
22.04.2018 18:00 26,2 C 26,0 C 24,5 C 59 % 0 lf 1007,4 hPa 0,0 l/m 1,00 h 0,00 h 256 W/m 17,5 km/h (3 Bft) 96,83 %
22.04.2018 19:00 25,4 C 25,0 C 23,1 C 52 % 0 lf 1007,8 hPa 0,0 l/m 1,00 h 0,00 h 113 W/m 31,5 km/h (5 Bft) 93,39 %
22.04.2018 20:00 23,8 C 22,4 C 20,3 C 57 % 0 lf 1008,4 hPa 0,0 l/m 0,50 h 0,00 h 23 W/m 18,0 km/h (3 Bft) 98,36 %
22.04.2018 21:00 21,8 C 19,0 C 15,9 C 66 % 0 lf 1009,2 hPa 0,0 l/m 0,00 h 0,00 h 0 W/m 3,3 km/h (1 Bft) 96,23 %
22.04.2018 22:00 19,5 C 16,8 C 13,8 C 73 % 0 lf 1009,9 hPa 0,0 l/m 0,00 h 0,00 h 0 W/m 0,5 km/h (0 Bft) 96,22 %
22.04.2018 23:00 17,8 C 15,9 C 13,1 C 80 % 0 lf 1010,0 hPa 0,0 l/m 0,00 h 0,00 h 0 W/m 2,4 km/h (1 Bft) 95,87 %
Min-Datum _ 17.04.18 17.04.18 17.04.18 19.04.18 16.04.18 22.04.18 - - - - 16.04.18 20.04.18
_ Min-Zeit 07:08 04:44 06:28 16:52 00:00 17:58 - - - - 00:42 05:43
Minimum _ 5,9 C 5,0 C 3,3 C 32 % 0 lf 1007,3 hPa - - - - 0,0 km/h (0 Bft) 4,76 %
Max-Datum _ 20.04.18 20.04.18 19.04.18 17.04.18 17.04.18 18.04.18 16.04.18 16.04.18 16.04.18 16.04.18 19.04.18 16.04.18
_ Max-Zeit 16:52 13:50 15:22 08:42 04:08 10:12 00:00 08:38 05:52 13:50 12:00 00:08
Maximum _ 29,9 C 36,7 C 33,9 C 97 % 15 lf 1030,4 hPa 0,0 l/m 0,07 h 0,03 h 999 W/m 45,1 km/h
S (6 Bft)
100,00 %
Durchschnitt _ 18,2 C 19,5 C 16,3 C 69 % 1 lf 1020,3 hPa #0,0 l/m #80:51 h #12 min. 394 W/m 9,8 km/h (2 Bft) 96,33 %
© 2018 W. Hausmann